Time;durP1;ratioP1;P1;durP2;ratioP2;P2;SDS_P1;SDS_P2;PMS_P1;PMS_P2;Temp;Humidity;BMP_temperature;BMP_pressure;BME280_temperature;BME280_humidity;BME280_pressure;Samples;Min_cycle;Max_cycle;Signal;HPM_P1;HPM_P2
2021/09/28 00:01:38;;;;;;;4.40;1.02;;;;;;;11.66;78.68;101213.31;6247828;23;20015;-80
2021/09/28 00:04:04;;;;;;;8.45;1.15;;;;;;;11.62;78.90;101211.09;6197835;23;20066;-80
2021/09/28 00:06:29;;;;;;;6.90;1.40;;;;;;;11.66;78.40;101208.56;6172518;23;20008;-80
2021/09/28 00:08:55;;;;;;;5.72;0.90;;;;;;;11.63;78.79;101211.91;6248190;23;20004;-80
2021/09/28 00:11:20;;;;;;;6.57;1.10;;;;;;;11.59;78.70;101206.09;6247586;23;20091;-80
2021/09/28 00:13:45;;;;;;;8.20;1.33;;;;;;;11.59;78.80;101219.19;6222660;23;20011;-80
2021/09/28 00:16:11;;;;;;;8.07;1.40;;;;;;;11.57;78.64;101204.72;6222255;23;20004;-80
2021/09/28 00:18:37;;;;;;;8.05;1.02;;;;;;;11.55;78.84;101206.94;6222616;23;20008;-79
2021/09/28 00:21:02;;;;;;;6.43;1.27;;;;;;;11.54;78.77;101213.63;6222331;23;20082;-80
2021/09/28 00:23:28;;;;;;;4.53;0.75;;;;;;;11.51;79.34;101206.69;6247438;23;20499;-80
2021/09/28 00:25:53;;;;;;;6.10;1.15;;;;;;;11.52;78.98;101204.72;6197109;23;20010;-81
2021/09/28 00:28:19;;;;;;;5.43;1.30;;;;;;;11.48;79.07;101211.97;6247305;22;20012;-80
2021/09/28 00:30:44;;;;;;;6.15;0.90;;;;;;;11.44;79.30;101210.88;6222249;23;20012;-80
2021/09/28 00:33:10;;;;;;;6.68;1.00;;;;;;;11.44;79.13;101213.66;6222239;23;20019;-80
2021/09/28 00:35:36;;;;;;;6.72;1.08;;;;;;;11.41;79.31;101212.28;6222293;23;20011;-80
2021/09/28 00:38:02;;;;;;;6.57;1.20;;;;;;;11.39;79.51;101209.78;6197133;23;20004;-80
2021/09/28 00:40:27;;;;;;;8.00;1.65;;;;;;;11.39;79.54;101208.94;6197416;23;20012;-80
2021/09/28 00:42:53;;;;;;;5.78;1.10;;;;;;;11.34;79.57;101201.44;6197435;23;20337;-80
2021/09/28 00:45:18;;;;;;;6.32;1.05;;;;;;;11.33;79.51;101205.31;6171860;23;20015;-79
2021/09/28 00:47:44;;;;;;;8.13;1.58;;;;;;;11.33;79.62;101198.94;6197021;23;20023;-80
2021/09/28 00:50:10;;;;;;;7.68;1.50;;;;;;;11.33;79.73;101194.19;6221755;23;20004;-79
2021/09/28 00:52:36;;;;;;;6.82;1.75;;;;;;;11.32;79.51;101205.63;6222570;23;20093;-80
2021/09/28 00:55:02;;;;;;;7.63;1.17;;;;;;;11.28;79.63;101191.47;6222321;23;20000;-80
2021/09/28 00:57:28;;;;;;;6.80;1.00;;;;;;;11.28;80.02;101193.38;6197084;23;20004;-81
2021/09/28 00:59:53;;;;;;;9.82;1.25;;;;;;;11.28;79.83;101193.38;6196904;23;20008;-80
2021/09/28 01:02:19;;;;;;;7.28;1.15;;;;;;;11.26;79.74;101190.91;6197369;23;20008;-79
2021/09/28 01:04:44;;;;;;;6.15;1.08;;;;;;;11.26;79.60;101196.47;6197303;23;20011;-79
2021/09/28 01:07:10;;;;;;;8.40;1.33;;;;;;;11.21;79.54;101190.91;6221768;23;20016;-79
2021/09/28 01:09:36;;;;;;;6.53;1.00;;;;;;;11.24;79.48;101183.97;6197387;23;20079;-80
2021/09/28 01:12:02;;;;;;;7.85;1.30;;;;;;;11.23;79.47;101183.13;6196908;23;20005;-79
2021/09/28 01:14:29;;;;;;;6.72;1.02;;;;;;;11.21;79.79;101178.97;6197828;23;20027;-80
2021/09/28 01:16:55;;;;;;;4.55;1.02;;;;;;;11.21;79.63;101177.00;6248974;23;20475;-79
2021/09/28 01:19:21;;;;;;;6.78;1.45;;;;;;;11.16;79.70;101166.72;6221916;23;20005;-79
2021/09/28 01:21:46;;;;;;;4.82;1.17;;;;;;;11.14;80.00;101162.56;6197452;23;20008;-79
2021/09/28 01:24:12;;;;;;;5.93;0.98;;;;;;;11.15;79.78;101158.69;6197098;23;20482;-79
2021/09/28 01:26:38;;;;;;;5.72;0.90;;;;;;;11.13;79.89;101163.69;6222276;23;20008;-79
2021/09/28 01:29:04;;;;;;;5.13;1.08;;;;;;;11.13;79.97;101158.13;6171885;23;20012;-79
2021/09/28 01:31:29;;;;;;;5.55;1.17;;;;;;;11.12;79.75;101154.53;6226094;23;20341;-79
2021/09/28 01:33:55;;;;;;;5.45;0.93;;;;;;;11.10;79.97;101153.13;6222130;23;20031;-78
2021/09/28 01:36:21;;;;;;;6.55;1.20;;;;;;;11.12;79.91;101154.53;6222383;23;20000;-79
2021/09/28 01:38:46;;;;;;;4.95;0.98;;;;;;;11.11;80.03;101163.97;6247205;23;20487;-79
2021/09/28 01:41:12;;;;;;;7.60;1.17;;;;;;;11.08;80.12;101152.56;6247194;23;20012;-79
2021/09/28 01:43:38;;;;;;;4.53;1.00;;;;;;;11.08;80.06;101147.84;6196578;23;20425;-79
2021/09/28 01:46:03;;;;;;;8.25;1.30;;;;;;;11.11;79.80;101149.22;6248552;22;20420;-79
2021/09/28 01:48:46;;;;;;;5.85;1.42;;;;;;;11.07;80.35;101156.47;6247617;23;20314;-79
2021/09/28 01:51:11;;;;;;;9.23;1.33;;;;;;;11.03;80.18;101150.66;6222482;23;20012;-80
2021/09/28 01:53:37;;;;;;;7.50;1.10;;;;;;;11.01;80.40;101152.06;6222021;23;20012;-79
2021/09/28 01:56:03;;;;;;;10.90;1.38;;;;;;;11.05;80.13;101144.81;6248495;22;20016;-80
2021/09/28 01:58:28;;;;;;;6.90;1.50;;;;;;;11.03;80.17;101150.66;6247189;22;20008;-79
2021/09/28 02:00:54;;;;;;;5.05;1.25;;;;;;;11.00;80.24;101153.97;6247940;23;20008;-79
2021/09/28 02:03:19;;;;;;;4.82;1.15;;;;;;;11.04;80.09;101148.72;6224034;23;20015;-80
2021/09/28 02:05:45;;;;;;;6.22;1.38;;;;;;;11.00;80.50;101144.81;6223586;23;20337;-80
2021/09/28 02:08:10;;;;;;;10.05;1.42;;;;;;;11.01;80.49;101132.59;6223629;23;20062;-80
2021/09/28 02:10:36;;;;;;;5.18;1.38;;;;;;;10.98;80.52;101133.13;6223577;23;20011;-79
2021/09/28 02:13:02;;;;;;;7.60;1.30;;;;;;;10.94;80.62;101125.38;6223762;23;20011;-80
2021/09/28 02:15:28;;;;;;;5.85;0.98;;;;;;;10.99;80.47;101118.13;6248843;23;20004;-80
2021/09/28 02:17:53;;;;;;;7.28;1.42;;;;;;;10.95;80.57;101127.03;6248885;23;20008;-79
2021/09/28 02:20:18;;;;;;;6.47;1.30;;;;;;;10.92;80.64;101124.84;6248906;23;20012;-80
2021/09/28 02:22:44;;;;;;;6.65;1.35;;;;;;;10.93;80.49;101114.53;6223599;23;20455;-80
2021/09/28 02:25:12;;;;;;;6.60;1.88;;;;;;;10.91;80.43;101114.81;6223681;23;20490;-80
2021/09/28 02:27:38;;;;;;;6.15;1.63;;;;;;;10.93;80.34;101112.59;6224213;23;20012;-80
2021/09/28 02:30:04;;;;;;;6.43;0.90;;;;;;;10.91;80.77;101106.47;6198047;23;20015;-79
2021/09/28 02:32:29;;;;;;;5.95;1.35;;;;;;;10.90;80.79;101102.03;6223293;23;20016;-80
2021/09/28 02:34:55;;;;;;;3.92;1.05;;;;;;;10.89;80.91;101103.16;6198640;23;20039;-80
2021/09/28 02:37:20;;;;;;;7.47;1.27;;;;;;;10.89;80.93;101111.50;6223459;23;20440;-80
2021/09/28 02:39:46;;;;;;;8.05;1.52;;;;;;;10.91;81.23;101098.13;6223188;23;20012;-79
2021/09/28 02:42:11;;;;;;;6.95;1.20;;;;;;;10.90;81.19;101096.47;6248470;23;20012;-79
2021/09/28 02:44:37;;;;;;;3.95;1.30;;;;;;;10.89;81.02;101099.53;6223199;23;20071;-79
2021/09/28 02:47:03;;;;;;;7.32;1.30;;;;;;;10.90;81.21;101104.00;6248835;23;20008;-79
2021/09/28 02:49:28;;;;;;;5.15;1.30;;;;;;;10.90;81.33;101096.47;6198648;23;20008;-80
2021/09/28 02:51:54;;;;;;;4.57;1.02;;;;;;;10.91;81.28;101088.97;6248498;23;20031;-80
2021/09/28 02:54:19;;;;;;;6.47;1.10;;;;;;;10.91;81.22;101091.75;6198368;23;20031;-80
2021/09/28 02:56:45;;;;;;;4.97;1.10;;;;;;;10.89;81.25;101093.97;6223087;23;20011;-80
2021/09/28 02:59:10;;;;;;;6.63;1.75;;;;;;;10.88;81.68;101093.16;6223166;23;20012;-80
2021/09/28 03:01:36;;;;;;;8.38;1.33;;;;;;;10.90;81.65;101096.47;6198037;23;20067;-80
2021/09/28 03:04:01;;;;;;;7.63;1.73;;;;;;;10.92;81.39;101099.81;6223107;23;20008;-79
2021/09/28 03:06:27;;;;;;;7.05;1.85;;;;;;;10.89;81.85;101103.16;6248646;23;20066;-80
2021/09/28 03:08:52;;;;;;;5.85;1.45;;;;;;;10.90;81.87;101099.25;6173474;23;20012;-80
2021/09/28 03:11:18;;;;;;;9.38;1.30;;;;;;;10.89;81.76;101092.06;6223249;23;20070;-79
2021/09/28 03:13:43;;;;;;;5.82;1.70;;;;;;;10.92;81.87;101096.19;6222290;23;20448;-80
2021/09/28 03:16:09;;;;;;;8.13;1.77;;;;;;;10.95;82.01;101092.88;6248617;23;20011;-79
2021/09/28 03:18:34;;;;;;;9.35;1.60;;;;;;;10.91;82.00;101095.34;6248502;23;20429;-80
2021/09/28 03:21:00;;;;;;;7.43;1.67;;;;;;;10.92;82.49;101094.25;6223247;23;20016;-80
2021/09/28 03:23:25;;;;;;;7.35;1.70;;;;;;;10.98;82.29;101092.31;6222853;23;20004;-80
2021/09/28 03:25:51;;;;;;;8.25;2.05;;;;;;;10.99;82.46;101093.97;6222832;23;20012;-80
2021/09/28 03:28:17;;;;;;;6.45;1.45;;;;;;;10.95;82.58;101090.91;6247794;22;20015;-79
2021/09/28 03:30:42;;;;;;;10.27;1.90;;;;;;;10.99;83.07;101088.41;6198441;23;20345;-79
2021/09/28 03:33:08;;;;;;;7.72;1.77;;;;;;;11.04;82.79;101090.34;6247972;23;20020;-80
2021/09/28 03:35:33;;;;;;;8.25;1.75;;;;;;;11.02;82.52;101087.81;6222818;23;20057;-79
2021/09/28 03:37:59;;;;;;;6.72;1.92;;;;;;;11.03;82.70;101091.44;6248123;23;20011;-80
2021/09/28 03:40:26;;;;;;;8.00;1.90;;;;;;;11.00;83.09;101084.50;6249488;22;20015;-80
2021/09/28 03:42:51;;;;;;;8.93;1.85;;;;;;;11.09;83.17;101076.44;6248645;22;20004;-79
2021/09/28 03:45:17;;;;;;;7.40;2.35;;;;;;;11.04;82.79;101084.78;6222575;23;20012;-80
2021/09/28 03:47:42;;;;;;;9.27;2.05;;;;;;;11.08;83.38;101085.88;6247901;23;20675;-80
2021/09/28 03:50:08;;;;;;;10.23;2.28;;;;;;;11.10;82.98;101076.13;6248070;23;20004;-80
2021/09/28 03:52:34;;;;;;;6.97;2.45;;;;;;;11.08;82.98;101071.97;6197696;23;20008;-80
2021/09/28 03:54:59;;;;;;;7.78;1.85;;;;;;;11.08;82.95;101075.56;6223049;23;20486;-80
2021/09/28 03:57:25;;;;;;;11.35;2.15;;;;;;;11.07;83.19;101067.53;6247693;23;20004;-80
2021/09/28 03:59:50;;;;;;;8.18;1.83;;;;;;;11.09;83.13;101071.69;6222397;23;20015;-80
2021/09/28 04:02:16;;;;;;;9.48;2.17;;;;;;;11.10;83.38;101072.53;6197452;23;20004;-80
2021/09/28 04:04:41;;;;;;;12.95;2.60;;;;;;;11.10;83.23;101066.97;6248115;23;20004;-80
2021/09/28 04:07:07;;;;;;;5.65;1.85;;;;;;;11.11;83.05;101065.84;6197517;23;20004;-80
2021/09/28 04:09:32;;;;;;;6.45;1.95;;;;;;;11.12;83.55;101067.53;6222618;23;20047;-79
2021/09/28 04:11:58;;;;;;;10.43;2.40;;;;;;;11.13;83.25;101060.81;6222267;23;20011;-80
2021/09/28 04:14:23;;;;;;;7.32;2.20;;;;;;;11.13;83.04;101066.38;6222336;23;20066;-79
2021/09/28 04:16:49;;;;;;;9.27;1.98;;;;;;;11.11;83.51;101057.50;6222723;23;20381;-80
2021/09/28 04:19:14;;;;;;;8.40;2.10;;;;;;;11.12;83.07;101060.00;6247513;23;20496;-80
2021/09/28 04:21:42;;;;;;;7.78;2.15;;;;;;;11.16;83.27;101055.53;6247647;22;20007;-79
2021/09/28 04:24:07;;;;;;;6.15;1.85;;;;;;;11.12;83.06;101060.00;6222643;23;20030;-79
2021/09/28 04:26:33;;;;;;;12.32;2.90;;;;;;;11.18;83.15;101064.41;6247924;23;20333;-79
2021/09/28 04:28:59;;;;;;;7.93;2.00;;;;;;;11.20;83.26;101061.38;6247669;23;20015;-79
2021/09/28 04:31:25;;;;;;;8.93;2.28;;;;;;;11.17;82.85;101067.47;6247293;23;20042;-80
2021/09/28 04:33:50;;;;;;;9.38;2.40;;;;;;;11.16;83.92;101058.31;6197336;23;20008;-80
2021/09/28 04:36:16;;;;;;;6.45;2.10;;;;;;;11.21;83.47;101065.81;6222509;23;20004;-80
2021/09/28 04:38:41;;;;;;;9.65;1.92;;;;;;;11.21;83.60;101053.84;6222514;23;20012;-80
2021/09/28 04:41:07;;;;;;;8.85;2.35;;;;;;;11.22;83.31;101055.50;6197009;23;20011;-80
2021/09/28 04:43:32;;;;;;;9.63;2.30;;;;;;;11.22;83.39;101053.56;6247321;23;20058;-81
2021/09/28 04:45:58;;;;;;;9.30;2.40;;;;;;;11.19;83.05;101048.56;6222074;23;20058;-80
2021/09/28 04:48:23;;;;;;;8.35;2.25;;;;;;;11.20;83.76;101050.25;6222621;23;20015;-79
2021/09/28 04:50:52;;;;;;;7.13;2.40;;;;;;;11.22;83.28;101042.44;6247644;23;20015;-79
2021/09/28 04:53:19;;;;;;;7.95;2.30;;;;;;;11.20;83.05;101047.47;6222864;23;20008;-79
2021/09/28 04:55:45;;;;;;;9.25;2.33;;;;;;;11.19;83.34;101043.00;6249004;22;20007;-79
2021/09/28 04:58:10;;;;;;;7.93;2.00;;;;;;;11.19;83.40;101049.38;6247226;23;20012;-79
2021/09/28 05:00:36;;;;;;;6.18;2.33;;;;;;;11.22;83.46;101045.22;6247751;23;20008;-80
2021/09/28 05:03:01;;;;;;;9.02;2.40;;;;;;;11.23;83.37;101043.25;6248951;22;20008;-78
2021/09/28 05:05:27;;;;;;;8.38;2.53;;;;;;;11.23;83.28;101052.47;6247252;23;20004;-79
2021/09/28 05:07:52;;;;;;;8.23;2.45;;;;;;;11.24;83.63;101051.31;6222080;23;20008;-79
2021/09/28 05:10:18;;;;;;;10.65;2.50;;;;;;;11.21;83.52;101051.91;6249080;22;20019;-80
2021/09/28 05:12:43;;;;;;;11.73;2.88;;;;;;;11.23;83.42;101044.13;6247386;23;20016;-79
2021/09/28 05:15:09;;;;;;;10.00;2.78;;;;;;;11.24;83.62;101053.28;6221908;23;20421;-79
2021/09/28 05:17:35;;;;;;;13.35;2.80;;;;;;;11.22;83.83;101047.16;6221911;23;20047;-79
2021/09/28 05:20:02;;;;;;;11.23;2.65;;;;;;;11.19;83.89;101040.22;6222570;23;20000;-78
2021/09/28 05:22:28;;;;;;;8.60;2.85;;;;;;;11.24;84.12;101051.31;6249200;22;20061;-78
2021/09/28 05:24:53;;;;;;;7.40;2.40;;;;;;;11.21;83.59;101046.34;6248970;22;20012;-76
2021/09/28 05:27:21;;;;;;;8.45;3.00;;;;;;;11.19;84.68;101051.34;6248719;22;20008;-77
2021/09/28 05:29:47;;;;;;;9.77;2.85;;;;;;;11.20;84.42;101047.47;6222415;23;20030;-76
2021/09/28 05:32:12;;;;;;;10.20;2.63;;;;;;;11.22;84.35;101048.00;6247198;23;20028;-76
2021/09/28 05:34:56;;;;;;;10.20;2.97;;;;;;;11.21;84.71;101054.69;6247462;23;20012;-78
2021/09/28 05:37:29;;;;;;;9.30;2.67;;;;;;;11.23;84.26;101049.69;6200272;23;20074;-78
2021/09/28 05:40:05;;;;;;;13.57;3.33;;;;;;;11.23;84.63;101049.69;6179883;23;20015;-78
2021/09/28 05:42:33;;;;;;;12.90;3.28;;;;;;;11.21;84.37;101046.34;6199913;23;20008;-78
2021/09/28 05:45:13;;;;;;;8.98;2.97;;;;;;;11.20;84.64;101044.69;6223991;23;20091;-78
2021/09/28 05:47:41;;;;;;;8.35;2.97;;;;;;;11.21;85.20;101038.00;6177149;23;20062;-75
2021/09/28 05:50:07;;;;;;;9.68;2.65;;;;;;;11.19;84.77;101027.16;6249417;23;20012;-77
2021/09/28 05:52:33;;;;;;;10.13;2.78;;;;;;;11.18;84.85;101031.06;6249691;22;20011;-77
2021/09/28 05:55:01;;;;;;;9.80;2.53;;;;;;;11.20;84.64;101039.13;6248805;23;20000;-77
2021/09/28 05:57:29;;;;;;;12.48;3.13;;;;;;;11.20;85.24;101036.34;6223858;23;20008;-77
2021/09/28 05:59:54;;;;;;;11.65;3.15;;;;;;;11.19;85.13;101029.94;6223686;23;20011;-77
2021/09/28 06:02:20;;;;;;;13.48;3.35;;;;;;;11.20;85.36;101030.78;6248971;23;20008;-76
2021/09/28 06:04:46;;;;;;;8.43;2.72;;;;;;;11.23;85.32;101027.44;6223370;23;20000;-77
2021/09/28 06:07:19;;;;;;;12.10;3.42;;;;;;;11.20;85.49;101028.00;6224279;23;20004;-78
2021/09/28 06:09:48;;;;;;;9.00;2.92;;;;;;;11.26;85.42;101026.03;6223236;23;20011;-78
2021/09/28 06:12:13;;;;;;;11.70;3.35;;;;;;;11.19;86.13;101021.59;6200176;23;20012;-76
2021/09/28 06:14:39;;;;;;;8.02;2.83;;;;;;;11.18;86.00;101010.78;6222950;23;20015;-77
2021/09/28 06:17:05;;;;;;;11.10;3.42;;;;;;;11.16;86.20;101016.59;6197837;23;20015;-78
2021/09/28 06:24:09;;;;;;;;;;;;;;;11.27;85.81;101019.34;6202640;23;20020;-79
2021/09/28 06:28:12;;;;;;;14.30;3.88;;;;;;;11.27;85.72;101017.38;6205914;22;20295;-79
2021/09/28 06:30:42;;;;;;;12.77;3.80;;;;;;;11.25;85.97;101019.63;6098664;23;20049;-77
2021/09/28 06:33:08;;;;;;;9.30;2.97;;;;;;;11.25;85.89;101013.22;6074692;23;20456;-75
2021/09/28 06:35:33;;;;;;;16.25;3.30;;;;;;;11.27;85.83;101011.81;6076340;23;20013;-74
2021/09/28 06:38:00;;;;;;;12.75;3.53;;;;;;;11.24;85.99;101017.13;6103451;23;20016;-72
2021/09/28 06:40:26;;;;;;;12.00;3.70;;;;;;;11.25;87.79;101005.72;6127375;23;20312;-75
2021/09/28 06:42:51;;;;;;;11.80;3.70;;;;;;;11.28;85.87;101010.72;6127850;23;20117;-74
2021/09/28 06:45:18;;;;;;;12.32;3.53;;;;;;;11.30;86.20;101016.81;6102921;23;20021;-76
2021/09/28 06:47:43;;;;;;;13.82;3.67;;;;;;;11.35;85.69;101021.53;6078781;23;20014;-75
2021/09/28 06:50:09;;;;;;;14.48;3.63;;;;;;;11.36;85.99;101031.50;6103189;23;20016;-71
2021/09/28 06:52:35;;;;;;;11.80;3.50;;;;;;;11.36;85.74;101031.50;6127730;23;20018;-73
2021/09/28 06:55:00;;;;;;;9.43;3.33;;;;;;;11.34;85.85;101023.47;6079365;23;20021;-72
2021/09/28 06:57:26;;;;;;;10.70;3.13;;;;;;;11.36;85.94;101024.00;6102859;23;20014;-73
2021/09/28 06:59:51;;;;;;;8.43;3.28;;;;;;;11.40;85.80;101027.06;6054945;23;20014;-74
2021/09/28 07:02:17;;;;;;;10.30;3.20;;;;;;;11.38;86.22;101026.50;6237261;23;20012;-72
2021/09/28 07:04:42;;;;;;;11.23;3.70;;;;;;;11.39;86.27;101020.66;6249286;22;20302;-72
2021/09/28 07:07:08;;;;;;;8.00;3.42;;;;;;;11.41;85.98;101020.38;6199604;23;20004;-72
2021/09/28 07:09:34;;;;;;;13.57;4.20;;;;;;;11.41;85.89;101015.63;6199242;23;20015;-73
2021/09/28 07:11:59;;;;;;;13.38;4.28;;;;;;;11.41;86.23;101015.63;6224989;23;20011;-73
2021/09/28 07:14:25;;;;;;;9.77;4.10;;;;;;;11.41;86.29;101012.84;6199275;23;20004;-73
2021/09/28 07:16:50;;;;;;;11.63;3.88;;;;;;;11.50;86.68;101007.50;6199262;23;20012;-73
2021/09/28 07:19:16;;;;;;;12.07;4.05;;;;;;;11.52;86.77;101018.34;6224517;23;20566;-72
2021/09/28 07:21:42;;;;;;;11.52;3.67;;;;;;;11.55;87.11;101017.78;6224871;23;20008;-73
2021/09/28 07:24:08;;;;;;;9.80;3.33;;;;;;;11.56;87.75;101019.44;6224370;22;20004;-72
2021/09/28 07:26:34;;;;;;;12.75;3.45;;;;;;;11.60;87.97;101026.91;6198996;23;20015;-72
2021/09/28 07:28:59;;;;;;;12.80;3.97;;;;;;;11.62;88.03;101019.13;6249755;23;20416;-72
2021/09/28 07:31:25;;;;;;;10.43;3.50;;;;;;;11.68;87.90;101017.13;6224395;23;20016;-73
2021/09/28 07:33:51;;;;;;;15.13;3.47;;;;;;;11.76;88.64;101018.47;6224237;23;20008;-72
2021/09/28 07:36:17;;;;;;;14.25;3.92;;;;;;;11.85;88.07;101014.81;6225103;22;20023;-72
2021/09/28 07:38:43;;;;;;;13.30;3.63;;;;;;;11.99;89.14;101022.50;6199263;23;20012;-72
2021/09/28 07:41:09;;;;;;;8.70;3.72;;;;;;;12.13;88.84;101020.69;6224455;23;20306;-72
2021/09/28 07:43:34;;;;;;;12.80;3.55;;;;;;;12.22;88.46;101016.16;6199059;23;20019;-72
2021/09/28 07:46:00;;;;;;;10.45;3.60;;;;;;;12.37;88.03;101012.41;6198994;23;20008;-72
2021/09/28 07:48:26;;;;;;;10.40;3.20;;;;;;;12.49;87.31;101021.19;6224693;23;20009;-72
2021/09/28 07:50:52;;;;;;;14.00;3.53;;;;;;;12.61;88.01;101020.78;6199101;23;20057;-72
2021/09/28 07:53:17;;;;;;;12.63;3.25;;;;;;;12.77;89.21;101026.19;6198801;23;20058;-72
2021/09/28 07:55:43;;;;;;;12.43;3.60;;;;;;;12.87;87.53;101026.06;6224149;23;20012;-72
2021/09/28 07:58:08;;;;;;;9.73;3.40;;;;;;;12.99;87.72;101023.69;6223992;23;20011;-70
2021/09/28 08:00:34;;;;;;;14.45;3.70;;;;;;;13.11;87.63;101024.09;6173655;23;20024;-69
2021/09/28 08:03:01;;;;;;;13.85;3.40;;;;;;;13.25;87.38;101015.00;6223693;23;20008;-69
2021/09/28 08:05:26;;;;;;;14.85;3.20;;;;;;;13.39;86.73;101015.94;6199365;23;20378;-72
2021/09/28 08:07:52;;;;;;;15.73;3.53;;;;;;;13.54;87.22;101017.66;6224278;23;20008;-72
2021/09/28 08:10:17;;;;;;;13.18;4.15;;;;;;;13.69;88.07;101025.00;6198697;23;20012;-72
2021/09/28 08:12:43;;;;;;;11.82;3.30;;;;;;;13.83;86.99;101020.31;6199170;23;20417;-70
2021/09/28 08:15:09;;;;;;;19.00;3.65;;;;;;;13.95;87.35;101026.22;6199249;23;20322;-70
2021/09/28 08:17:34;;;;;;;13.32;3.38;;;;;;;14.09;87.33;101020.69;6222842;22;20030;-70
2021/09/28 08:19:59;;;;;;;16.13;3.20;;;;;;;14.21;86.21;101028.63;6199023;23;20015;-70
2021/09/28 08:22:25;;;;;;;12.52;3.38;;;;;;;14.30;87.35;101019.22;6224008;23;20004;-70
2021/09/28 08:24:54;;;;;;;15.70;3.38;;;;;;;14.43;85.61;101017.59;6224120;23;20004;-70
2021/09/28 08:30:06;;;;;;;16.33;3.45;;;;;;;14.71;85.54;101014.88;6227841;23;20337;-70
2021/09/28 08:32:31;;;;;;;11.30;2.65;;;;;;;14.86;84.92;101019.31;6223980;23;20016;-70
2021/09/28 08:34:58;;;;;;;14.68;3.08;;;;;;;15.00;85.02;101008.97;6224216;23;20011;-70
2021/09/28 08:37:26;;;;;;;15.27;3.28;;;;;;;15.13;84.43;101012.91;6224174;22;20020;-70
2021/09/28 08:39:52;;;;;;;13.50;2.97;;;;;;;15.25;84.04;101007.59;6224168;23;20421;-70
2021/09/28 08:42:17;;;;;;;11.95;3.20;;;;;;;15.36;83.19;101008.19;6198778;23;20107;-70
2021/09/28 08:44:42;;;;;;;12.77;3.45;;;;;;;15.48;84.75;101013.22;6198266;23;20019;-70
2021/09/28 08:47:08;;;;;;;9.40;2.50;;;;;;;15.58;83.87;101013.00;6223566;23;20337;-70
2021/09/28 08:49:35;;;;;;;13.00;3.20;;;;;;;15.68;83.82;101023.97;6173771;23;20000;-70
2021/09/28 08:52:01;;;;;;;15.63;3.35;;;;;;;15.76;82.63;101012.03;6224419;23;20040;-70
2021/09/28 08:54:26;;;;;;;12.20;2.80;;;;;;;15.86;83.37;101006.19;6223698;23;20061;-70
2021/09/28 08:56:52;;;;;;;14.30;3.35;;;;;;;15.95;81.98;101011.84;6223812;23;20034;-70
2021/09/28 08:59:18;;;;;;;12.70;2.63;;;;;;;16.05;81.87;101005.19;6198835;23;20011;-70
2021/09/28 09:01:58;;;;;;;12.90;2.70;;;;;;;16.13;81.24;101006.34;6223895;23;20012;-70
2021/09/28 09:04:25;;;;;;;12.32;2.60;;;;;;;16.20;82.00;101001.97;6224326;22;20015;-70
2021/09/28 09:06:52;;;;;;;11.00;2.10;;;;;;;16.29;80.96;100997.22;6224339;23;20013;-70
2021/09/28 09:09:17;;;;;;;12.77;2.42;;;;;;;16.40;82.03;101003.41;6223441;23;20057;-71
2021/09/28 09:11:47;;;;;;;15.95;2.47;;;;;;;16.54;82.03;101006.09;6224774;23;20016;-71
2021/09/28 09:14:23;;;;;;;12.65;2.22;;;;;;;16.70;80.94;101004.53;6225202;23;20000;-70
2021/09/28 09:16:50;;;;;;;21.38;2.78;;;;;;;16.83;80.79;101004.81;6228011;23;20006;-70
2021/09/28 09:19:24;;;;;;;10.95;2.22;;;;;;;16.97;80.71;100997.09;6226119;22;20447;-70
2021/09/28 09:21:50;;;;;;;9.50;1.70;;;;;;;17.13;80.65;101001.09;6226900;22;20004;-71
2021/09/28 09:24:44;;;;;;;15.25;2.80;;;;;;;17.32;79.92;100997.16;6225487;23;20008;-70
2021/09/28 09:27:14;;;;;;;18.33;2.60;;;;;;;17.49;79.14;100991.56;6252265;22;20031;-71
2021/09/28 09:29:40;;;;;;;10.60;2.25;;;;;;;17.61;78.95;100997.34;6225601;23;20031;-71
2021/09/28 09:32:06;;;;;;;13.20;2.95;;;;;;;17.75;78.89;100985.13;6225067;23;20459;-70
2021/09/28 09:34:32;;;;;;;9.55;2.28;;;;;;;17.88;78.02;100988.94;6225362;23;20509;-70
2021/09/28 09:37:03;;;;;;;8.15;2.42;;;;;;;18.03;77.59;100986.47;6225224;23;20008;-71
2021/09/28 09:39:43;;;;;;;14.95;3.17;;;;;;;18.17;77.11;100980.66;6200838;23;20012;-71
2021/09/28 09:42:09;;;;;;;11.38;2.40;;;;;;;18.26;77.09;100975.81;6226005;23;20023;-71
2021/09/28 09:44:35;;;;;;;14.10;2.55;;;;;;;18.38;76.53;100977.94;6199474;23;20534;-70
2021/09/28 09:47:01;;;;;;;10.48;2.08;;;;;;;18.44;76.65;100976.59;6225555;23;20012;-71
2021/09/28 09:49:30;;;;;;;15.38;2.63;;;;;;;18.51;76.13;100973.25;6251335;23;20082;-70
2021/09/28 09:52:08;;;;;;;11.52;2.63;;;;;;;18.60;75.70;100973.22;6226493;22;20012;-70
2021/09/28 09:54:39;;;;;;;10.85;2.00;;;;;;;18.66;75.37;100971.88;6204673;23;20008;-70
2021/09/28 09:57:05;;;;;;;10.45;1.88;;;;;;;18.74;75.31;100968.22;6225811;23;20008;-70
2021/09/28 09:59:31;;;;;;;11.40;1.85;;;;;;;18.78;74.94;100960.78;6250427;23;20502;-71
2021/09/28 10:01:56;;;;;;;8.00;1.58;;;;;;;18.87;73.73;100955.09;6175384;23;20008;-70
2021/09/28 10:04:22;;;;;;;10.18;1.58;;;;;;;18.94;74.73;100944.13;6199504;23;20012;-71
2021/09/28 10:06:48;;;;;;;16.80;2.25;;;;;;;18.98;74.13;100942.28;6250561;23;20062;-71
2021/09/28 10:09:42;;;;;;;10.80;1.73;;;;;;;19.04;73.12;100942.91;6225847;23;20039;-72
2021/09/28 10:12:08;;;;;;;10.88;1.70;;;;;;;19.10;73.08;100931.09;6201072;23;20011;-71
2021/09/28 10:14:37;;;;;;;11.65;2.00;;;;;;;19.18;73.31;100927.41;6224907;23;20011;-71
2021/09/28 10:17:15;;;;;;;9.88;1.40;;;;;;;19.24;72.70;100930.00;6225462;23;20409;-71
2021/09/28 10:19:42;;;;;;;12.82;2.08;;;;;;;19.29;72.19;100924.19;6252195;23;20011;-71
2021/09/28 10:22:08;;;;;;;7.25;1.35;;;;;;;19.30;70.76;100928.63;6224766;23;20008;-71
2021/09/28 10:24:34;;;;;;;12.82;1.60;;;;;;;19.36;71.16;100928.09;6225645;22;20011;-71
2021/09/28 10:27:00;;;;;;;8.95;1.48;;;;;;;19.43;71.56;100911.47;6175434;23;20005;-71
2021/09/28 10:29:38;;;;;;;8.18;1.50;;;;;;;19.52;70.68;100896.47;6275758;22;20412;-71
2021/09/28 10:32:22;;;;;;;5.35;1.17;;;;;;;19.62;70.18;100908.16;6199563;23;20344;-70
2021/09/28 10:35:06;;;;;;;8.20;1.60;;;;;;;19.72;70.34;100909.72;6274991;22;20004;-70
2021/09/28 10:37:50;;;;;;;6.57;1.02;;;;;;;19.83;69.86;100913.75;6275749;22;20016;-70
2021/09/28 10:40:17;;;;;;;10.25;1.52;;;;;;;19.95;68.97;100904.53;6275690;22;20004;-70
2021/09/28 10:43:23;;;;;;;11.65;1.48;;;;;;;20.04;68.12;100901.63;6250180;23;20059;-70
2021/09/28 10:45:49;;;;;;;5.47;1.17;;;;;;;20.09;67.47;100899.41;6250148;23;20015;-70
2021/09/28 10:48:23;;;;;;;12.95;1.40;;;;;;;20.14;67.39;100895.53;6174718;23;20012;-70
2021/09/28 10:51:04;;;;;;;7.15;1.48;;;;;;;20.15;66.33;100887.91;6250104;23;20012;-70
2021/09/28 10:53:30;;;;;;;6.20;1.48;;;;;;;20.13;66.70;100887.44;6203142;23;20083;-71
2021/09/28 10:55:56;;;;;;;8.55;1.27;;;;;;;20.08;66.57;100883.66;6251987;22;20004;-70
2021/09/28 10:58:24;;;;;;;9.85;1.42;;;;;;;20.06;66.49;100882.38;6224241;23;20448;-70
2021/09/28 11:00:52;;;;;;;9.95;1.48;;;;;;;20.02;67.15;100885.06;6225740;23;20034;-70
2021/09/28 11:03:17;;;;;;;11.27;1.40;;;;;;;19.98;67.62;100869.19;6275607;22;20011;-70
2021/09/28 11:05:56;;;;;;;9.07;1.50;;;;;;;19.91;66.91;100874.56;6199569;23;20020;-70
2021/09/28 11:08:22;;;;;;;8.20;1.58;;;;;;;19.85;66.90;100866.34;6224122;22;20004;-70
2021/09/28 11:10:55;;;;;;;8.23;1.35;;;;;;;19.78;66.98;100857.66;6249943;22;20018;-70
2021/09/28 11:13:20;;;;;;;5.78;0.90;;;;;;;19.73;67.17;100854.22;6224724;23;20325;-71
2021/09/28 11:15:46;;;;;;;9.52;1.55;;;;;;;19.71;67.94;100843.28;6199421;23;20008;-70
2021/09/28 11:18:12;;;;;;;11.70;1.38;;;;;;;19.73;67.72;100843.78;6224466;23;20334;-70
2021/09/28 11:20:38;;;;;;;8.13;1.30;;;;;;;19.78;67.51;100837.06;6224729;23;20019;-71
2021/09/28 11:23:07;;;;;;;8.75;1.25;;;;;;;19.85;67.45;100831.69;6224718;23;20044;-71
2021/09/28 11:25:34;;;;;;;6.90;1.35;;;;;;;19.89;67.02;100845.91;6224707;23;20008;-74
2021/09/28 11:28:06;;;;;;;5.32;1.02;;;;;;;19.97;65.32;100840.16;6224376;23;20420;-74
2021/09/28 11:30:34;;;;;;;9.77;1.30;;;;;;;20.06;65.90;100831.63;6198985;23;20005;-72